Time;durP1;ratioP1;P1;durP2;ratioP2;P2;SDS_P1;SDS_P2;PMS_P1;PMS_P2;Temp;Humidity;BMP_temperature;BMP_pressure;BME280_temperature;BME280_humidity;BME280_pressure;Samples;Min_cycle;Max_cycle;Signal;HPM_P1;HPM_P2
2022/05/17 00:00:55;;;;;;;14.48;9.27;;;;;;;19.79;66.92;100061.06;5118726;28;20332;-73
2022/05/17 00:03:21;;;;;;;14.20;9.15;;;;;;;19.70;67.21;100057.75;5119168;28;20027;-73
2022/05/17 00:05:48;;;;;;;16.17;10.85;;;;;;;19.61;67.61;100046.44;5120002;28;20051;-73
2022/05/17 00:08:14;;;;;;;14.05;9.40;;;;;;;19.63;67.42;100046.22;5118633;28;20036;-73
2022/05/17 00:10:41;;;;;;;15.27;9.80;;;;;;;19.71;67.00;100046.81;5116596;28;20032;-73
2022/05/17 00:13:07;;;;;;;12.63;9.48;;;;;;;19.78;66.75;100046.81;5119648;28;20044;-73
2022/05/17 00:15:34;;;;;;;12.80;9.30;;;;;;;19.71;66.63;100038.75;5119061;28;20094;-73
2022/05/17 00:18:00;;;;;;;10.90;9.38;;;;;;;19.56;67.28;100035.50;5119499;28;20034;-73
2022/05/17 00:20:26;;;;;;;11.93;9.20;;;;;;;19.59;64.91;100043.13;5118161;28;20277;-73
2022/05/17 00:22:52;;;;;;;11.55;9.00;;;;;;;19.54;63.59;100040.28;5118605;28;20102;-73
2022/05/17 00:25:20;;;;;;;11.15;9.52;;;;;;;19.28;65.54;100029.59;5118727;28;20046;-73
2022/05/17 00:27:46;;;;;;;13.93;10.43;;;;;;;19.20;67.58;100027.97;5102989;28;20302;-73
2022/05/17 00:30:12;;;;;;;16.65;9.57;;;;;;;19.21;67.83;100029.63;5120273;28;20036;-73
2022/05/17 00:32:38;;;;;;;14.98;9.40;;;;;;;19.23;67.91;100027.53;5119681;28;20028;-73
2022/05/17 00:35:04;;;;;;;17.42;9.90;;;;;;;19.15;68.58;100027.78;5118531;28;20115;-73
2022/05/17 00:37:30;;;;;;;12.43;10.63;;;;;;;19.18;68.63;100030.03;5118819;28;20028;-73
2022/05/17 00:39:55;;;;;;;17.60;10.57;;;;;;;19.09;68.96;100031.31;5119337;28;20039;-73
2022/05/17 00:42:21;;;;;;;11.75;10.27;;;;;;;19.12;68.73;100031.72;5118485;28;20024;-73
2022/05/17 00:44:47;;;;;;;15.45;10.80;;;;;;;19.06;69.13;100042.47;5116728;28;20035;-73
2022/05/17 00:47:29;;;;;;;16.27;11.18;;;;;;;19.00;69.96;100032.56;5115826;28;20081;-73
2022/05/17 00:50:13;;;;;;;18.13;11.38;;;;;;;18.99;70.41;100031.72;5115413;28;20032;-73
2022/05/17 00:52:54;;;;;;;14.30;11.27;;;;;;;19.10;70.30;100035.63;5116123;28;20220;-73
2022/05/17 00:55:21;;;;;;;17.10;11.70;;;;;;;19.10;70.15;100038.31;5115635;28;20085;-73
2022/05/17 00:57:47;;;;;;;14.15;11.75;;;;;;;19.12;70.09;100039.75;5119044;28;20286;-73
2022/05/17 01:00:16;;;;;;;15.10;11.02;;;;;;;18.99;70.69;100038.97;5118368;28;20027;-73
2022/05/17 01:02:48;;;;;;;12.50;11.20;;;;;;;18.96;71.05;100040.22;5115592;28;20032;-73
2022/05/17 01:05:14;;;;;;;13.02;10.75;;;;;;;18.96;71.18;100039.38;5118216;28;20038;-73
2022/05/17 01:07:44;;;;;;;14.93;9.55;;;;;;;19.06;70.36;100032.53;5118112;28;20024;-73
2022/05/17 01:10:10;;;;;;;20.70;11.57;;;;;;;18.73;71.65;100032.59;5121400;28;20198;-73
2022/05/17 01:12:38;;;;;;;14.10;11.02;;;;;;;18.46;72.65;100033.59;5123417;28;20027;-73
2022/05/17 01:15:07;;;;;;;18.17;13.00;;;;;;;17.99;74.34;100031.88;5122759;28;20034;-73
2022/05/17 01:17:36;;;;;;;17.73;11.90;;;;;;;17.84;75.36;100027.53;5122139;27;20027;-73
2022/05/17 01:20:05;;;;;;;16.80;12.32;;;;;;;17.88;75.11;100029.81;5121303;28;20103;-73
2022/05/17 01:22:31;;;;;;;17.23;12.48;;;;;;;18.10;74.57;100033.97;5124795;28;20334;-73
2022/05/17 01:24:56;;;;;;;16.55;12.40;;;;;;;18.14;74.26;100028.00;5122350;28;20113;-73
2022/05/17 01:27:38;;;;;;;17.02;12.40;;;;;;;18.02;74.80;100026.13;5101818;28;20023;-73
2022/05/17 01:30:05;;;;;;;17.58;12.43;;;;;;;18.06;75.00;100024.69;5089366;28;20234;-73
2022/05/17 01:32:31;;;;;;;16.27;12.43;;;;;;;18.08;74.95;100012.72;5119387;28;20341;-73
2022/05/17 01:34:56;;;;;;;17.15;13.07;;;;;;;18.00;76.06;100020.13;5122431;28;20062;-73
2022/05/17 01:37:22;;;;;;;19.88;13.15;;;;;;;17.66;77.21;100019.19;5122752;28;20084;-73
2022/05/17 01:39:47;;;;;;;18.13;13.55;;;;;;;17.91;76.60;100027.53;5124421;28;20043;-73
2022/05/17 01:42:14;;;;;;;20.52;13.13;;;;;;;17.89;76.33;100018.06;5105112;28;20019;-73
2022/05/17 01:44:41;;;;;;;18.05;12.43;;;;;;;18.22;75.33;100021.63;5121647;28;20100;-73
2022/05/17 01:47:07;;;;;;;17.85;12.27;;;;;;;18.33;74.93;100015.63;5121612;28;20023;-73
2022/05/17 01:49:32;;;;;;;15.63;12.55;;;;;;;18.31;74.70;100008.84;5122176;28;20050;-73
2022/05/17 01:51:58;;;;;;;16.23;12.15;;;;;;;18.43;74.41;100015.22;5121437;28;20024;-73
2022/05/17 01:54:23;;;;;;;17.92;12.55;;;;;;;18.49;73.46;100009.03;5103922;28;20031;-73
2022/05/17 01:56:49;;;;;;;20.13;12.82;;;;;;;18.57;72.91;100010.69;5120882;28;20435;-73
2022/05/17 01:59:14;;;;;;;17.92;11.85;;;;;;;18.69;72.10;100011.75;5121233;28;20070;-73
2022/05/17 02:01:40;;;;;;;19.75;13.52;;;;;;;18.71;71.81;100002.44;5122434;28;20046;-73
2022/05/17 02:04:06;;;;;;;21.50;12.70;;;;;;;18.80;70.71;100005.78;5121270;28;20031;-73
2022/05/17 02:06:31;;;;;;;19.42;13.15;;;;;;;18.83;70.53;100009.91;5122347;28;20241;-73
2022/05/17 02:08:56;;;;;;;21.90;13.60;;;;;;;18.72;71.24;100005.97;5121039;28;20047;-73
2022/05/17 02:11:22;;;;;;;17.00;11.98;;;;;;;18.70;69.54;100006.16;5121621;28;20028;-73
2022/05/17 02:13:47;;;;;;;17.67;12.68;;;;;;;18.61;69.34;100001.19;5122336;28;20032;-73
2022/05/17 02:16:13;;;;;;;17.80;11.35;;;;;;;18.46;69.15;99994.19;5120545;28;20372;-73
2022/05/17 02:18:38;;;;;;;17.40;12.80;;;;;;;18.54;69.28;100008.41;5123917;28;20035;-73
2022/05/17 02:21:04;;;;;;;16.80;12.07;;;;;;;18.18;71.46;99988.22;5123471;28;20325;-72
2022/05/17 02:23:30;;;;;;;18.35;11.55;;;;;;;18.25;71.44;99999.75;5120760;28;20083;-73
2022/05/17 02:25:55;;;;;;;16.10;10.65;;;;;;;18.36;70.72;100011.72;5121037;28;20038;-73
2022/05/17 02:28:21;;;;;;;13.55;9.88;;;;;;;18.37;70.47;100006.16;5121407;28;20047;-73
2022/05/17 02:30:47;;;;;;;14.40;9.50;;;;;;;18.38;70.29;100004.28;5120862;28;20092;-73
2022/05/17 02:33:13;;;;;;;14.95;10.07;;;;;;;18.40;69.83;99999.56;5121673;28;20032;-73
2022/05/17 02:35:39;;;;;;;12.68;9.52;;;;;;;18.32;69.78;99991.72;5120490;28;20393;-73
2022/05/17 02:38:06;;;;;;;16.98;9.93;;;;;;;18.16;70.45;100006.34;5103292;28;20222;-73
2022/05/17 02:40:32;;;;;;;23.05;10.35;;;;;;;18.31;70.41;99998.13;5123350;28;20050;-73
2022/05/17 02:42:57;;;;;;;12.20;10.30;;;;;;;18.25;70.11;99986.34;5121670;28;20078;-73
2022/05/17 02:45:23;;;;;;;17.25;11.20;;;;;;;18.42;69.29;99992.13;5120394;28;20065;-73
2022/05/17 02:47:48;;;;;;;12.82;9.27;;;;;;;18.41;68.35;99995.84;5121573;28;20055;-73
2022/05/17 02:50:15;;;;;;;14.48;10.15;;;;;;;18.36;69.08;99995.63;5120749;28;20085;-73
2022/05/17 02:52:41;;;;;;;15.52;9.30;;;;;;;18.26;68.99;99995.22;5120468;28;20229;-73
2022/05/17 02:55:08;;;;;;;14.98;10.15;;;;;;;18.23;69.54;99992.97;5121145;28;20032;-73
2022/05/17 02:57:34;;;;;;;18.63;10.43;;;;;;;18.27;69.98;100004.91;5119855;28;20440;-73
2022/05/17 02:59:59;;;;;;;27.95;10.85;;;;;;;18.30;70.19;100004.50;5122892;28;20035;-73
2022/05/17 03:02:26;;;;;;;24.35;10.82;;;;;;;18.37;69.58;100002.66;5121882;28;20039;-73
2022/05/17 03:04:51;;;;;;;20.02;10.18;;;;;;;18.29;70.19;100013.56;5121535;28;20088;-73
2022/05/17 03:07:17;;;;;;;16.48;9.80;;;;;;;18.31;70.09;100016.88;5121861;28;20058;-72
2022/05/17 03:09:42;;;;;;;17.88;10.00;;;;;;;18.29;70.70;100010.91;5123859;28;20047;-72
2022/05/17 03:12:09;;;;;;;17.42;10.68;;;;;;;18.42;69.17;100017.09;5105768;28;20248;-73
2022/05/17 03:14:35;;;;;;;21.80;9.98;;;;;;;18.43;68.56;100028.63;5105746;28;20027;-72
2022/05/17 03:17:00;;;;;;;18.42;10.57;;;;;;;18.23;68.90;100014.41;5123950;28;20049;-73
2022/05/17 03:19:26;;;;;;;12.43;9.85;;;;;;;18.18;69.94;100023.06;5123909;28;20325;-72
2022/05/17 03:21:51;;;;;;;13.57;9.93;;;;;;;18.15;70.25;100012.75;5123711;28;20280;-73
2022/05/17 03:24:17;;;;;;;19.02;10.25;;;;;;;18.16;70.21;100031.28;5105539;28;20191;-73
2022/05/17 03:26:42;;;;;;;16.48;11.30;;;;;;;18.23;70.65;100025.94;5123438;28;20027;-73
2022/05/17 03:29:08;;;;;;;22.23;11.35;;;;;;;18.19;70.78;100022.03;5123553;28;20258;-73
2022/05/17 03:31:36;;;;;;;15.77;10.35;;;;;;;18.03;71.35;100030.44;5123481;28;20027;-73
2022/05/17 03:34:02;;;;;;;19.88;10.23;;;;;;;18.06;71.52;100022.84;5123957;28;20031;-73
2022/05/17 03:36:27;;;;;;;18.90;10.88;;;;;;;18.27;70.25;100029.88;5123378;28;20047;-72
2022/05/17 03:38:53;;;;;;;16.20;10.55;;;;;;;18.41;69.86;100028.84;5123494;28;20023;-73
2022/05/17 03:41:18;;;;;;;16.33;10.70;;;;;;;18.68;68.53;100040.41;5105377;28;20027;-72
2022/05/17 03:43:44;;;;;;;25.42;10.95;;;;;;;18.62;68.37;100037.75;5123412;28;20028;-73
2022/05/17 03:46:09;;;;;;;12.63;10.57;;;;;;;18.56;68.48;100035.84;5123183;28;20325;-73
2022/05/17 03:48:36;;;;;;;14.77;11.18;;;;;;;18.54;68.87;100032.56;5123343;28;20260;-72
2022/05/17 03:51:01;;;;;;;16.02;10.85;;;;;;;18.57;68.32;100022.25;5123224;28;20099;-73
2022/05/17 03:53:27;;;;;;;22.13;10.82;;;;;;;18.54;68.79;100021.81;5123270;28;20357;-73
2022/05/17 03:55:52;;;;;;;20.00;11.27;;;;;;;18.72;68.06;100032.78;5123321;28;20364;-73
2022/05/17 03:58:18;;;;;;;14.27;11.25;;;;;;;18.68;68.68;100031.53;5122966;28;20051;-72
2022/05/17 04:00:43;;;;;;;16.85;11.20;;;;;;;18.67;69.15;100030.72;5120064;28;20312;-73
2022/05/17 04:03:09;;;;;;;21.17;11.88;;;;;;;18.80;69.13;100027.22;5120068;28;20039;-73
2022/05/17 04:05:34;;;;;;;15.40;11.18;;;;;;;18.79;69.90;100030.94;5119126;28;20359;-73
2022/05/17 04:08:00;;;;;;;22.77;11.48;;;;;;;18.85;69.93;100032.78;5101345;28;20038;-73
2022/05/17 04:10:26;;;;;;;26.80;13.00;;;;;;;18.99;69.55;100039.78;5119676;28;20059;-73
2022/05/17 04:12:52;;;;;;;27.10;12.68;;;;;;;19.08;69.43;100041.22;5121560;28;20047;-73
2022/05/17 04:15:22;;;;;;;24.05;13.90;;;;;;;19.02;70.16;100042.06;5120921;28;20036;-73
2022/05/17 04:17:49;;;;;;;22.38;14.00;;;;;;;19.19;69.61;100039.75;5119809;28;20225;-73
2022/05/17 04:20:16;;;;;;;26.05;17.05;;;;;;;19.44;68.56;100039.88;5100222;28;20196;-73
2022/05/17 04:22:49;;;;;;;22.02;17.45;;;;;;;19.54;68.85;100042.97;5119799;28;20039;-73
2022/05/17 04:25:18;;;;;;;25.13;14.80;;;;;;;19.40;69.13;100042.16;5118775;28;20339;-73
2022/05/17 04:27:43;;;;;;;20.63;14.35;;;;;;;19.67;68.25;100042.91;5120652;28;20095;-74
2022/05/17 04:30:10;;;;;;;21.73;12.82;;;;;;;19.95;66.74;100041.75;5121227;28;20054;-73
2022/05/17 04:32:36;;;;;;;23.67;13.35;;;;;;;20.00;66.43;100041.91;5118627;28;20024;-73
2022/05/17 04:35:01;;;;;;;20.58;13.38;;;;;;;19.99;66.25;100034.91;5119259;28;20024;-73
2022/05/17 04:37:28;;;;;;;17.33;13.10;;;;;;;20.31;65.65;100041.09;5118546;28;20098;-73
2022/05/17 04:39:53;;;;;;;29.80;13.02;;;;;;;20.54;65.11;100027.09;5119753;28;20036;-73
2022/05/17 04:42:19;;;;;;;17.10;11.93;;;;;;;20.60;63.80;100031.59;5118601;28;20447;-73
2022/05/17 04:44:44;;;;;;;19.88;12.68;;;;;;;20.84;63.07;100021.88;5121195;28;20072;-73
2022/05/17 04:47:10;;;;;;;16.55;11.25;;;;;;;20.92;62.12;100030.47;5122377;28;20092;-73
2022/05/17 04:49:36;;;;;;;18.05;11.68;;;;;;;21.07;61.48;100021.22;5126757;28;20057;-73
2022/05/17 04:52:01;;;;;;;20.25;11.90;;;;;;;21.33;60.92;100026.34;5126720;28;20207;-73
2022/05/17 04:54:27;;;;;;;17.65;12.07;;;;;;;21.27;60.49;100003.81;5125845;28;20069;-73
2022/05/17 04:56:53;;;;;;;96.57;13.10;;;;;;;21.63;59.67;100037.97;5126479;28;20051;-73
2022/05/17 04:59:19;;;;;;;21.08;12.43;;;;;;;22.05;58.58;100030.00;5126503;28;20257;-73
2022/05/17 05:01:45;;;;;;;17.13;12.90;;;;;;;22.18;57.99;100037.91;5126306;28;20035;-74
2022/05/17 05:04:10;;;;;;;23.67;11.63;;;;;;;21.84;58.39;100027.75;5126669;28;20034;-73
2022/05/17 05:06:36;;;;;;;20.25;11.98;;;;;;;21.83;58.63;100026.94;5126886;28;20386;-73
2022/05/17 05:09:02;;;;;;;33.78;11.23;;;;;;;22.21;57.59;100026.66;5126359;28;20036;-73
2022/05/17 05:11:28;;;;;;;16.80;10.43;;;;;;;22.44;56.09;100027.75;5126583;28;20032;-73
2022/05/17 05:13:54;;;;;;;20.10;11.73;;;;;;;22.68;55.70;100024.00;5126504;28;20031;-73
2022/05/17 05:16:19;;;;;;;17.40;11.50;;;;;;;22.97;54.67;100034.97;5126691;28;20035;-73
2022/05/17 05:18:44;;;;;;;20.98;11.40;;;;;;;23.45;53.31;100040.88;5108201;28;20264;-73
2022/05/17 05:21:13;;;;;;;31.40;11.43;;;;;;;23.64;51.96;100035.34;5126249;28;20374;-73
2022/05/17 05:23:41;;;;;;;17.67;11.35;;;;;;;23.99;50.91;100046.03;5126086;28;20034;-73
2022/05/17 05:26:07;;;;;;;14.43;10.77;;;;;;;24.13;49.91;100041.97;5126071;28;20036;-74
2022/05/17 05:28:34;;;;;;;17.83;10.15;;;;;;;24.25;49.69;100039.22;5126022;28;20310;-73
2022/05/17 05:31:03;;;;;;;23.50;9.93;;;;;;;24.39;50.02;100037.84;5125943;28;20038;-73
2022/05/17 05:33:29;;;;;;;23.40;10.27;;;;;;;24.77;48.42;100037.94;5126188;28;20243;-73
2022/05/17 05:35:55;;;;;;;19.33;10.38;;;;;;;24.86;48.00;100032.09;5107703;28;20019;-73
2022/05/17 05:38:20;;;;;;;18.45;10.13;;;;;;;24.97;47.64;100029.34;5125782;28;20034;-70
2022/05/17 05:40:46;;;;;;;12.32;8.88;;;;;;;25.27;46.48;100036.25;5107652;28;20035;-70
2022/05/17 05:43:12;;;;;;;15.98;9.35;;;;;;;25.36;45.98;100037.44;5125932;28;20059;-71
2022/05/17 05:45:37;;;;;;;16.60;9.02;;;;;;;25.62;45.43;100030.44;5125986;28;20024;-71
2022/05/17 05:48:03;;;;;;;12.50;9.35;;;;;;;25.96;44.58;100034.63;5123739;28;20039;-71
2022/05/17 05:50:29;;;;;;;14.68;8.27;;;;;;;26.37;44.05;100033.19;5124968;28;20035;-71
2022/05/17 05:53:05;;;;;;;13.88;8.80;;;;;;;25.93;45.02;100032.44;5122148;28;20038;-71
2022/05/17 05:55:31;;;;;;;13.90;8.85;;;;;;;26.14;44.42;100035.38;5122904;28;20287;-71
2022/05/17 05:57:57;;;;;;;11.55;7.72;;;;;;;26.26;43.60;100028.72;5124221;28;20299;-71
2022/05/17 06:00:23;;;;;;;11.27;7.60;;;;;;;26.13;43.00;100020.16;5120853;28;20035;-71
2022/05/17 06:02:49;;;;;;;10.27;6.57;;;;;;;26.72;42.01;100027.19;5121631;28;20085;-71
2022/05/17 06:05:15;;;;;;;9.50;7.07;;;;;;;26.73;41.24;100014.44;5120944;27;20105;-71
2022/05/17 06:07:41;;;;;;;13.32;6.43;;;;;;;26.81;41.51;100018.56;5121665;28;20075;-70
2022/05/17 06:10:07;;;;;;;12.27;7.22;;;;;;;26.90;41.19;100016.97;5122974;28;20228;-71
2022/05/17 06:12:33;;;;;;;10.15;6.60;;;;;;;27.35;39.68;100016.47;5122807;28;20043;-71
2022/05/17 06:14:58;;;;;;;11.63;6.55;;;;;;;27.63;39.06;100017.94;5106271;28;20055;-71
2022/05/17 06:17:27;;;;;;;10.10;6.03;;;;;;;28.02;38.66;100017.47;5120522;28;20559;-70
2022/05/17 06:19:55;;;;;;;12.73;6.63;;;;;;;28.06;38.29;100016.69;5119181;27;20351;-71
2022/05/17 06:22:21;;;;;;;12.13;5.80;;;;;;;27.96;38.67;100019.38;5119663;27;20027;-71
2022/05/17 06:24:47;;;;;;;13.57;6.10;;;;;;;28.27;38.42;100012.13;5118855;28;20279;-71
2022/05/17 06:27:12;;;;;;;16.95;6.57;;;;;;;28.59;37.46;100009.94;5119280;28;20035;-71
2022/05/17 06:29:38;;;;;;;10.30;6.35;;;;;;;28.87;36.55;100016.72;5120245;27;20062;-71
2022/05/17 06:32:04;;;;;;;13.73;6.45;;;;;;;28.96;36.41;100000.63;5118315;28;20089;-71
2022/05/17 06:34:30;;;;;;;14.77;5.53;;;;;;;28.54;36.75;100009.94;5119003;28;20326;-71
2022/05/17 06:36:55;;;;;;;10.13;6.53;;;;;;;28.88;36.45;100002.00;5117270;28;20144;-71
2022/05/17 06:39:21;;;;;;;12.05;6.43;;;;;;;29.46;35.26;100010.56;5118399;28;20243;-71
2022/05/17 06:41:47;;;;;;;8.18;5.47;;;;;;;29.14;36.00;100002.78;5119514;27;20020;-71
2022/05/17 06:44:13;;;;;;;12.88;5.57;;;;;;;29.15;35.82;100004.41;5118141;28;20074;-71
2022/05/17 06:46:38;;;;;;;10.93;6.15;;;;;;;29.69;35.03;99997.34;5118541;28;20039;-71
2022/05/17 06:49:04;;;;;;;8.65;5.68;;;;;;;30.12;34.32;99998.47;5119372;28;20028;-71
2022/05/17 06:51:31;;;;;;;9.38;5.18;;;;;;;30.41;33.07;99996.59;5118190;28;20062;-71
2022/05/17 06:53:56;;;;;;;9.60;5.15;;;;;;;30.83;32.51;99992.41;5117865;28;20035;-71
2022/05/17 06:56:22;;;;;;;10.20;5.30;;;;;;;30.72;32.29;99985.41;5100633;28;20247;-71
2022/05/17 06:58:47;;;;;;;12.07;5.50;;;;;;;30.84;31.87;99990.47;5118624;28;20066;-71
2022/05/17 07:01:13;;;;;;;17.50;5.82;;;;;;;30.57;32.50;99982.78;5118169;28;20040;-71
2022/05/17 07:03:38;;;;;;;9.15;5.20;;;;;;;30.97;31.86;99976.13;5119574;28;20039;-71
2022/05/17 07:06:04;;;;;;;13.13;5.32;;;;;;;31.03;32.07;99977.69;5116994;28;20038;-71
2022/05/17 07:08:29;;;;;;;13.20;5.40;;;;;;;30.32;32.22;99978.38;5118586;28;20054;-71
2022/05/17 07:13:39;;;;;;;;;;;;;;;31.13;31.58;99966.63;5119338;28;20038;-71
2022/05/17 07:16:04;;;;;;;8.93;5.15;;;;;;;31.28;30.81;99971.13;5117571;28;19916;-72
2022/05/17 07:18:30;;;;;;;9.60;5.05;;;;;;;31.12;31.67;99965.81;5119008;28;20036;-72
2022/05/17 07:20:56;;;;;;;9.65;5.13;;;;;;;31.52;31.30;99971.91;5117561;28;20072;-71
2022/05/17 07:23:24;;;;;;;9.23;4.85;;;;;;;31.16;31.22;99965.25;5116023;28;20031;-72
2022/05/17 07:25:50;;;;;;;9.70;5.47;;;;;;;31.26;31.29;99967.88;5118412;28;20317;-71
2022/05/17 07:28:17;;;;;;;9.90;5.60;;;;;;;31.33;31.36;99966.41;5117043;28;20055;-71
2022/05/17 07:30:44;;;;;;;6.30;5.03;;;;;;;30.76;32.08;99967.31;5117367;28;20110;-71
2022/05/17 07:33:09;;;;;;;15.75;5.38;;;;;;;31.66;30.62;99961.84;5117762;28;20035;-71
2022/05/17 07:35:35;;;;;;;9.05;5.68;;;;;;;31.95;30.26;99960.91;5117191;28;20171;-71
2022/05/17 07:38:02;;;;;;;9.68;4.75;;;;;;;31.58;31.03;99967.19;5118252;28;20169;-71
2022/05/17 07:40:28;;;;;;;9.70;5.40;;;;;;;31.88;30.50;99955.78;5118227;28;20035;-71
2022/05/17 07:42:54;;;;;;;6.90;5.10;;;;;;;31.92;30.73;99962.31;5117066;28;20024;-71
2022/05/17 07:45:20;;;;;;;8.85;5.55;;;;;;;32.04;29.58;99965.41;5118327;28;20084;-71
2022/05/17 07:47:46;;;;;;;7.72;5.28;;;;;;;32.06;29.68;99959.63;5117072;28;20067;-71
2022/05/17 07:50:11;;;;;;;8.20;5.20;;;;;;;31.80;30.67;99958.41;5116597;28;20058;-71
2022/05/17 07:52:37;;;;;;;8.25;5.07;;;;;;;32.40;29.93;99945.66;5117461;28;20261;-72
2022/05/17 07:55:04;;;;;;;14.75;5.07;;;;;;;32.74;28.32;99950.78;5116445;28;20140;-72
2022/05/17 07:57:29;;;;;;;7.68;5.50;;;;;;;32.94;28.06;99939.44;5117749;28;20027;-71
2022/05/17 07:59:55;;;;;;;8.93;4.72;;;;;;;33.04;27.73;99934.84;5116711;28;20035;-71
2022/05/17 08:02:21;;;;;;;6.75;4.85;;;;;;;33.13;27.85;99930.28;5098378;28;20028;-71
2022/05/17 08:04:46;;;;;;;11.05;5.80;;;;;;;33.43;27.43;99935.16;5099376;28;20039;-71
2022/05/17 08:07:12;;;;;;;10.20;5.28;;;;;;;33.69;26.97;99935.38;5116438;28;20028;-72
2022/05/17 08:09:38;;;;;;;7.97;5.15;;;;;;;33.78;27.30;99930.75;5116790;28;20226;-72
2022/05/17 08:12:07;;;;;;;8.95;5.38;;;;;;;33.56;27.29;99930.75;5117457;28;20031;-71
2022/05/17 08:14:34;;;;;;;10.63;5.45;;;;;;;33.58;26.94;99925.75;5116147;28;20031;-71
2022/05/17 08:17:01;;;;;;;9.38;5.75;;;;;;;32.83;28.12;99927.03;5116737;28;20217;-71
2022/05/17 08:19:26;;;;;;;9.32;5.47;;;;;;;32.82;28.51;99919.13;5116070;28;20054;-71
2022/05/17 08:21:52;;;;;;;11.88;5.82;;;;;;;32.00;29.82;99926.03;5117678;28;20338;-72
2022/05/17 08:24:17;;;;;;;8.18;5.47;;;;;;;32.43;28.75;99923.13;5116485;28;20206;-71
2022/05/17 08:29:27;;;;;;;13.63;5.78;;;;;;;33.08;28.82;99916.66;5115914;28;20380;-71
2022/05/17 08:34:41;;;;;;;8.35;5.45;;;;;;;32.91;28.44;99903.56;5095638;28;20100;-71
2022/05/17 08:37:06;;;;;;;9.75;5.75;;;;;;;32.93;28.58;99904.91;5116946;28;20035;-71
2022/05/17 08:39:32;;;;;;;10.50;5.60;;;;;;;32.64;28.60;99902.44;5116098;28;20399;-72
2022/05/17 08:42:14;;;;;;;9.43;4.93;;;;;;;32.91;28.38;99901.66;5116299;28;20062;-72
2022/05/17 08:44:48;;;;;;;7.78;5.20;;;;;;;32.59;29.16;99902.53;5116232;28;20054;-71
2022/05/17 08:47:25;;;;;;;9.90;5.70;;;;;;;33.03;28.84;99900.31;5116806;28;20094;-71
2022/05/17 08:50:05;;;;;;;8.00;5.38;;;;;;;33.10;27.66;99895.22;5116898;28;20054;-71
2022/05/17 08:52:33;;;;;;;13.82;5.28;;;;;;;32.84;28.37;99893.03;5116831;28;20023;-71
2022/05/17 08:55:10;;;;;;;21.27;7.70;;;;;;;32.95;28.94;99888.94;5097866;28;20061;-71
2022/05/17 08:57:56;;;;;;;10.32;5.35;;;;;;;32.62;29.46;99885.47;5115434;28;20023;-71
2022/05/17 09:00:31;;;;;;;8.18;5.45;;;;;;;33.33;28.60;99885.97;5115488;28;20039;-71
2022/05/17 09:03:00;;;;;;;12.15;5.85;;;;;;;33.49;28.13;99880.94;5115229;28;20203;-71
2022/05/17 09:06:04;;;;;;;9.05;5.40;;;;;;;33.38;28.24;99879.56;5114458;28;20026;-71
2022/05/17 09:08:51;;;;;;;7.32;5.40;;;;;;;33.74;28.53;99874.03;5116924;28;20062;-71
2022/05/17 09:11:43;;;;;;;15.40;5.78;;;;;;;33.73;27.76;99873.22;5116899;28;20063;-71
2022/05/17 09:14:25;;;;;;;7.22;4.82;;;;;;;33.68;26.94;99875.28;5098581;28;20034;-71
2022/05/17 09:16:57;;;;;;;8.43;5.43;;;;;;;33.69;27.19;99866.72;5115635;28;20047;-71
2022/05/17 09:19:22;;;;;;;10.80;6.10;;;;;;;33.12;28.09;99860.88;5117948;28;20075;-71
2022/05/17 09:21:48;;;;;;;10.98;5.60;;;;;;;32.48;29.11;99860.00;5115684;28;20035;-71
2022/05/17 09:24:19;;;;;;;10.40;5.80;;;;;;;32.58;29.22;99859.78;5114375;28;20036;-71
2022/05/17 09:26:51;;;;;;;7.75;5.75;;;;;;;32.53;28.50;99856.34;5117062;28;20034;-71
2022/05/17 09:29:33;;;;;;;10.02;5.50;;;;;;;32.45;28.85;99854.31;5117058;28;20039;-71
2022/05/17 09:32:06;;;;;;;8.25;5.70;;;;;;;32.48;29.84;99853.72;5120130;28;20043;-71
2022/05/17 09:34:40;;;;;;;12.70;5.50;;;;;;;32.34;29.80;99848.22;5118937;28;20372;-71
2022/05/17 09:37:11;;;;;;;7.53;5.88;;;;;;;32.61;29.23;99850.97;5119034;28;20032;-71
2022/05/17 09:39:37;;;;;;;7.85;5.00;;;;;;;32.43;28.46;99840.91;5118251;27;20302;-71
2022/05/17 09:42:05;;;;;;;10.93;4.75;;;;;;;32.57;28.41;99843.66;5120439;28;20062;-71
2022/05/17 09:44:33;;;;;;;7.07;4.60;;;;;;;32.17;28.27;99842.47;5101977;27;20027;-71
2022/05/17 09:47:03;;;;;;;7.85;4.75;;;;;;;32.19;27.72;99838.31;5118938;28;20051;-71
2022/05/17 09:55:27;;;;;;;6.30;4.95;;;;;;;32.22;27.95;99837.69;5102024;28;20049;-71
2022/05/17 09:57:57;;;;;;;10.48;4.32;;;;;;;32.16;27.49;99827.94;5118675;27;20059;-71
2022/05/17 10:00:30;;;;;;;7.95;4.45;;;;;;;31.56;28.18;99827.88;5118146;27;20069;-70
2022/05/17 10:03:12;;;;;;;10.00;4.23;;;;;;;31.11;27.93;99823.88;5120579;28;20036;-70
2022/05/17 10:05:37;;;;;;;9.63;5.30;;;;;;;30.76;30.30;99819.72;5099070;28;20032;-71
2022/05/17 10:08:25;;;;;;;6.97;4.88;;;;;;;30.41;30.67;99788.16;5101724;28;20099;-70
2022/05/17 10:11:08;;;;;;;8.70;4.88;;;;;;;30.18;31.08;99812.44;5119735;28;20054;-71
2022/05/17 10:13:45;;;;;;;7.32;4.95;;;;;;;30.06;31.16;99813.91;5119440;28;20019;-70
2022/05/17 10:16:22;;;;;;;9.82;4.80;;;;;;;29.49;32.39;99808.13;5120157;28;20035;-71
2022/05/17 10:19:22;;;;;;;7.50;4.50;;;;;;;29.39;32.88;99805.44;5120151;28;20085;-71
2022/05/17 10:21:57;;;;;;;11.82;4.55;;;;;;;29.50;34.16;99800.75;5117816;28;20035;-71
2022/05/17 10:24:42;;;;;;;8.95;4.72;;;;;;;29.55;32.26;99796.06;5118483;28;20036;-70
2022/05/17 10:27:15;;;;;;;11.20;5.40;;;;;;;29.70;33.02;99792.41;5118057;28;20338;-71
2022/05/17 10:29:49;;;;;;;107.53;10.27;;;;;;;30.04;31.60;99795.09;5119432;28;20046;-71
2022/05/17 10:32:50;;;;;;;9.80;4.50;;;;;;;30.12;29.78;99780.81;5119274;28;20089;-71
2022/05/17 10:35:36;;;;;;;9.38;2.78;;;;;;;30.11;25.56;99767.44;5117215;28;20031;-71
2022/05/17 10:38:10;;;;;;;5.82;2.83;;;;;;;30.13;26.31;99771.50;5117689;27;20386;-71
2022/05/17 10:40:43;;;;;;;8.50;3.08;;;;;;;30.17;26.18;99769.84;5117553;28;20039;-71
2022/05/17 10:43:15;;;;;;;13.10;3.50;;;;;;;30.37;26.78;99752.41;5119060;28;20265;-71
2022/05/17 10:45:41;;;;;;;10.55;3.25;;;;;;;30.55;26.92;99761.75;5119001;28;20034;-71
2022/05/17 10:48:27;;;;;;;10.30;3.45;;;;;;;30.66;25.93;99765.19;5117800;28;20058;-71
2022/05/17 10:51:15;;;;;;;5.10;3.17;;;;;;;30.85;25.77;99759.72;5117856;28;20059;-71
2022/05/17 10:54:09;;;;;;;4.70;3.22;;;;;;;30.49;25.25;99758.25;5118894;27;20043;-71
2022/05/17 10:56:49;;;;;;;9.50;3.17;;;;;;;30.22;25.33;99757.25;5116992;28;20036;-71
2022/05/17 10:59:33;;;;;;;8.88;3.92;;;;;;;30.28;25.42;99751.44;5118459;28;20050;-71
2022/05/17 11:02:14;;;;;;;7.28;3.22;;;;;;;30.16;24.97;99749.09;5117307;28;20029;-70
2022/05/17 11:05:07;;;;;;;7.25;3.35;;;;;;;30.17;25.97;99744.44;5116619;27;20062;-71
2022/05/17 11:07:47;;;;;;;7.03;3.22;;;;;;;30.19;26.34;99742.25;5094015;28;20110;-71
2022/05/17 11:10:39;;;;;;;7.43;2.80;;;;;;;30.45;25.81;99732.63;5121808;28;20110;-71
2022/05/17 11:13:11;;;;;;;4.80;3.15;;;;;;;30.37;25.04;99733.28;5097368;28;20275;-71
2022/05/17 11:15:41;;;;;;;7.43;3.28;;;;;;;30.26;25.80;99726.31;5118759;28;20138;-71
2022/05/17 11:18:16;;;;;;;6.47;2.95;;;;;;;30.40;25.25;99724.50;5117442;28;20038;-71
2022/05/17 11:20:57;;;;;;;6.53;3.55;;;;;;;30.13;23.84;99710.63;5117202;28;20038;-71
2022/05/17 11:23:45;;;;;;;18.58;3.75;;;;;;;30.36;23.19;99718.00;5116101;28;20031;-71
2022/05/17 11:26:29;;;;;;;6.97;2.83;;;;;;;30.47;23.84;99719.50;5097857;28;20236;-71
2022/05/17 11:29:06;;;;;;;5.82;2.70;;;;;;;30.28;22.82;99720.56;5116017;28;20027;-71
2022/05/17 11:31:53;;;;;;;7.20;2.80;;;;;;;30.36;22.36;99707.06;5116703;28;20028;-71
2022/05/17 11:34:43;;;;;;;8.20;2.17;;;;;;;30.37;21.07;99705.97;5116956;28;20031;-71
2022/05/17 11:37:31;;;;;;;6.68;2.60;;;;;;;30.29;21.27;99698.44;5116350;28;20180;-71
2022/05/17 11:39:58;;;;;;;6.53;2.63;;;;;;;30.63;22.62;99689.25;5118096;28;20035;-71
2022/05/17 11:42:31;;;;;;;6.82;2.90;;;;;;;30.57;21.19;99690.41;5116942;28;20067;-71